Cathma — PJTL — position and weather

sailwx.info

Track history (hours):
 
Tides and Currents Weather Stations Pressure Air Temp Water Temp Dewpoint Dewpoint Depression Visibility Wind Speed Wind Dir Waves Ship Positions

Cathma

Last reported at 2016-Feb-07 05:21 UTC. Time now 2016-Feb-12 16:12 UTC.
Position N 57°10' E 017°36'.

Length 112 m; draft 6.3 m.

Type: Ship. MMSI: 306832000.

Date/timePositionNaut miles runAvg speedWind from/ knotsBaromVisibWave heightAir tempDewpointWater temp
2016-Feb-07 05:21N 57°10' E 017°36'1310.4
2016-Feb-07 04:06N 56°58' E 017°27'910.5
2016-Feb-07 03:12N 56°49' E 017°21'97 9.7
2016-Feb-06 17:12N 55°37' E 015°22'710.3
2016-Feb-06 16:32N 55°34' E 015°12'1010.5
2016-Feb-06 15:33N 55°29' E 014°56'1110.8
2016-Feb-06 14:33N 55°24' E 014°39'1110.6
2016-Feb-06 13:33N 55°15' E 014°28'1110.7
2016-Feb-06 12:33N 55°07' E 014°16'1010.2
2016-Feb-06 11:33N 54°60' E 014°03'1110.7
2016-Feb-06 10:33N 54°56' E 013°46'3110.4
2016-Feb-06 07:33N 54°45' E 012°55'10 9.7
2016-Feb-06 06:33N 54°40' E 012°41'1410.2
2016-Feb-06 05:09N 54°32' E 012°20'6 9.6
2016-Feb-06 04:29N 54°27' E 012°13'9 8.9
2016-Feb-06 03:32N 54°25' E 011°59'10 9.7
2016-Feb-06 02:31N 54°26' E 011°43'9 9.7
2016-Feb-06 01:33N 54°30' E 011°28'1010.0
2016-Feb-06 00:33N 54°34' E 011°13'1010.0
2016-Feb-05 23:33N 54°35' E 010°55'1110.6
2016-Feb-05 22:33N 54°34' E 010°37'1310.2
2016-Feb-05 21:17N 54°29' E 010°17'7 9.8
2016-Feb-05 20:33N 54°22' E 010°11'2 2.1
2016-Feb-05 19:33N 54°22' E 010°07'8 7.8
2016-Feb-05 18:33N 54°21' E 009°54'6 6.0
2016-Feb-05 17:33N 54°20' E 009°44'31 7.8
2016-Feb-05 13:33N 53°55' E 009°12'3 2.8
2016-Feb-05 12:33N 53°53' E 009°08'8 8.0
2016-Feb-05 11:33N 53°51' E 008°55'10 9.7
2016-Feb-05 10:33N 53°55' E 008°40'1010.4
2016-Feb-05 09:33N 53°59' E 008°24'1010.4
2016-Feb-05 08:33N 53°59' E 008°06'1111.4
2016-Feb-05 07:33N 53°56' E 007°48'1111.4
2016-Feb-05 06:33N 53°54' E 007°29'1111.2
2016-Feb-05 05:33N 53°51' E 007°10'1111.5
2016-Feb-05 04:33N 53°48' E 006°52'1111.4
2016-Feb-05 03:33N 53°45' E 006°33'10 9.6
2016-Feb-05 02:33N 53°38' E 006°22'8 7.7
2016-Feb-05 01:33N 53°36' E 006°34'1110.5
2016-Feb-05 00:33N 53°30' E 006°48'1312.6
2016-Feb-04 23:33N 53°20' E 007°00'2 2.0
2016-Feb-04 22:33N 53°19' E 006°57'0 0.0
2016-Feb-04 21:33N 53°19' E 006°57'0 0.0
2016-Feb-04 20:33N 53°19' E 006°57'0 0.0
2016-Feb-04 19:32N 53°19' E 006°57'0 0.0
2016-Feb-04 18:32N 53°19' E 006°57'0 0.0
2016-Feb-04 17:31N 53°19' E 006°57'0 0.0
2016-Feb-04 16:31N 53°19' E 006°57'0 0.0
2016-Feb-04 15:34N 53°19' E 006°57'0 0.0
2016-Feb-04 14:33N 53°19' E 006°57'0 0.0
2016-Feb-04 13:33N 53°19' E 006°57'0 0.0
2016-Feb-04 12:32N 53°19' E 006°57'0 0.0
2016-Feb-04 11:33N 53°19' E 006°57'0 0.0
2016-Feb-04 10:31N 53°19' E 006°57'0 0.0
2016-Feb-04 09:31N 53°19' E 006°57'0 0.0
2016-Feb-04 08:34N 53°19' E 006°57'0 0.0
2016-Feb-04 07:33N 53°19' E 006°57'0 0.0
2016-Feb-04 06:33N 53°19' E 006°57'0 0.0
2016-Feb-04 05:32N 53°19' E 006°57'0 0.0
2016-Feb-04 04:29N 53°19' E 006°57'0 0.0
2016-Feb-04 03:31N 53°19' E 006°57'0 0.0
2016-Feb-04 02:31N 53°19' E 006°57'0 0.0
2016-Feb-04 01:30N 53°19' E 006°57'0 0.0
2016-Feb-04 00:33N 53°19' E 006°57'0 0.0
2016-Feb-03 23:33N 53°19' E 006°57'0 0.0
2016-Feb-03 22:32N 53°19' E 006°57'0 0.0
2016-Feb-03 21:32N 53°19' E 006°57'0 0.3
2016-Feb-03 20:33N 53°20' E 006°57'0 0.2
2016-Feb-03 19:32N 53°20' E 006°56'0 0.0
2016-Feb-03 18:32N 53°20' E 006°56'0 0.0
2016-Feb-03 17:31N 53°20' E 006°56'0 0.0
2016-Feb-03 16:31N 53°20' E 006°56'0 0.0
2016-Feb-03 15:30N 53°20' E 006°56'0 0.0
2016-Feb-03 14:30N 53°20' E 006°56'0 0.0
2016-Feb-03 13:33N 53°20' E 006°56'0 0.0
2016-Feb-03 12:32N 53°20' E 006°56'0 0.0
2016-Feb-03 11:32N 53°20' E 006°56'0 0.0
2016-Feb-03 10:31N 53°20' E 006°56'0 0.0
2016-Feb-03 09:25N 53°20' E 006°56'0 0.0
2016-Feb-03 08:33N 53°20' E 006°56'0 0.0
2016-Feb-03 07:33N 53°20' E 006°56'0 0.0
2016-Feb-03 06:33N 53°20' E 006°56'0 0.0
2016-Feb-03 05:32N 53°20' E 006°56'0 0.0
2016-Feb-03 04:32N 53°20' E 006°56'0 0.0
2016-Feb-03 03:31N 53°20' E 006°56'0 0.0
2016-Feb-03 02:31N 53°20' E 006°56'0 0.0
2016-Feb-03 01:33N 53°20' E 006°56'0 0.0
2016-Feb-03 00:33N 53°20' E 006°56'0 0.0
2016-Feb-02 23:32N 53°20' E 006°56'0 0.0
2016-Feb-02 22:32N 53°20' E 006°56'0 0.0
2016-Feb-02 21:32N 53°20' E 006°56'0 0.0
2016-Feb-02 20:31N 53°20' E 006°56'0 0.0
2016-Feb-02 19:31N 53°20' E 006°56'0 0.0
2016-Feb-02 18:34N 53°20' E 006°56'4 3.5
2016-Feb-02 17:34N 53°23' E 006°58'1212.1
2016-Feb-02 16:34N 53°32' E 006°44'1010.0
2016-Feb-02 15:34N 53°37' E 006°29'1312.8
2016-Feb-02 14:33N 53°37' E 006°08'1313.0
2016-Feb-02 13:33N 53°36' E 005°46'1313.4
2016-Feb-02 12:34N 53°33' E 005°24'1413.5
2016-Feb-02 11:32N 53°29' E 005°02'2512.5
2016-Feb-02 09:33N 53°11' E 004°32'1312.9
2016-Feb-02 08:33N 53°00' E 004°22'1412.7
2016-Feb-02 07:26N 52°48' E 004°10'9411.9
2016-Feb-01 23:33N 51°39' E 002°26'1212.2
2016-Feb-01 22:33N 51°30' E 002°13'1312.9
2016-Feb-01 21:33N 51°20' E 001°59'1313.6
2016-Feb-01 20:33N 51°10' E 001°45'1414.2
2016-Feb-01 19:33N 50°59' E 001°31'28412.3
2016-Jan-31 20:28N 48°57' W 005°08'1813.1
2016-Jan-31 19:07N 48°48' W 005°31'103 6.9
2016-Jan-31 04:09N 47°18' W 004°16'102 7.3
2016-Jan-30 14:08N 46°20' W 002°12'4 6.4
2016-Jan-30 13:33N 46°18' W 002°08'8 7.1
2016-Jan-30 12:23N 46°14' W 001°58'6 7.3
2016-Jan-30 11:34N 46°10' W 001°51'8 7.2
2016-Jan-30 10:30N 46°08' W 001°40'7 6.9
2016-Jan-30 09:30N 46°07' W 001°30'1010.7
2016-Jan-30 08:34N 46°05' W 001°16'1111.4
2016-Jan-30 07:34N 45°57' W 001°04'3 0.1
2016-Jan-28 17:24N 45°56' W 001°00'6 6.5
2016-Jan-28 16:33N 45°59' W 001°07'6 6.2
2016-Jan-28 15:33N 46°04' W 001°13'0 0.0
2016-Jan-28 14:33N 46°04' W 001°13'0 0.1
2016-Jan-28 13:33N 46°04' W 001°13'0 0.0
2016-Jan-28 12:34N 46°04' W 001°13'0 0.0
2016-Jan-28 11:34N 46°04' W 001°13'0 0.0
2016-Jan-28 10:33N 46°04' W 001°13'0 0.0
2016-Jan-28 09:33N 46°04' W 001°13'0 0.0
2016-Jan-28 08:33N 46°04' W 001°13'0 0.0
2016-Jan-28 07:33N 46°04' W 001°13'0 0.0
2016-Jan-28 06:33N 46°04' W 001°13'0 0.1
2016-Jan-28 05:33N 46°04' W 001°13'  
Track history (hours):
 
Tides and Currents Weather Stations Pressure Air Temp Water Temp Dewpoint Dewpoint Depression Visibility Wind Speed Wind Dir Waves Ship Positions

Cathma

Last reported at 2016-Feb-07 05:21 UTC. Time now 2016-Feb-12 16:12 UTC.
Position N 57°10' E 017°36'.

Length 112 m; draft 6.3 m.

Type: Ship. MMSI: 306832000.

Date/timePositionNaut miles runAvg speedWind from/ knotsBaromVisibWave heightAir tempDewpointWater temp
2016-Feb-07 05:21N 57°10' E 017°36'1310.4
2016-Feb-07 04:06N 56°58' E 017°27'910.5
2016-Feb-07 03:12N 56°49' E 017°21'97 9.7
2016-Feb-06 17:12N 55°37' E 015°22'710.3
2016-Feb-06 16:32N 55°34' E 015°12'1010.5
2016-Feb-06 15:33N 55°29' E 014°56'1110.8
2016-Feb-06 14:33N 55°24' E 014°39'1110.6
2016-Feb-06 13:33N 55°15' E 014°28'1110.7
2016-Feb-06 12:33N 55°07' E 014°16'1010.2
2016-Feb-06 11:33N 54°60' E 014°03'1110.7
2016-Feb-06 10:33N 54°56' E 013°46'3110.4
2016-Feb-06 07:33N 54°45' E 012°55'10 9.7
2016-Feb-06 06:33N 54°40' E 012°41'1410.2
2016-Feb-06 05:09N 54°32' E 012°20'6 9.6
2016-Feb-06 04:29N 54°27' E 012°13'9 8.9
2016-Feb-06 03:32N 54°25' E 011°59'10 9.7
2016-Feb-06 02:31N 54°26' E 011°43'9 9.7
2016-Feb-06 01:33N 54°30' E 011°28'1010.0
2016-Feb-06 00:33N 54°34' E 011°13'1010.0
2016-Feb-05 23:33N 54°35' E 010°55'1110.6
2016-Feb-05 22:33N 54°34' E 010°37'1310.2
2016-Feb-05 21:17N 54°29' E 010°17'7 9.8
2016-Feb-05 20:33N 54°22' E 010°11'2 2.1
2016-Feb-05 19:33N 54°22' E 010°07'8 7.8
2016-Feb-05 18:33N 54°21' E 009°54'6 6.0
2016-Feb-05 17:33N 54°20' E 009°44'31 7.8
2016-Feb-05 13:33N 53°55' E 009°12'3 2.8
2016-Feb-05 12:33N 53°53' E 009°08'8 8.0
2016-Feb-05 11:33N 53°51' E 008°55'10 9.7
2016-Feb-05 10:33N 53°55' E 008°40'1010.4
2016-Feb-05 09:33N 53°59' E 008°24'1010.4
2016-Feb-05 08:33N 53°59' E 008°06'1111.4
2016-Feb-05 07:33N 53°56' E 007°48'1111.4
2016-Feb-05 06:33N 53°54' E 007°29'1111.2
2016-Feb-05 05:33N 53°51' E 007°10'1111.5
2016-Feb-05 04:33N 53°48' E 006°52'1111.4
2016-Feb-05 03:33N 53°45' E 006°33'10 9.6
2016-Feb-05 02:33N 53°38' E 006°22'8 7.7
2016-Feb-05 01:33N 53°36' E 006°34'1110.5
2016-Feb-05 00:33N 53°30' E 006°48'1312.6
2016-Feb-04 23:33N 53°20' E 007°00'2 2.0
2016-Feb-04 22:33N 53°19' E 006°57'0 0.0
2016-Feb-04 21:33N 53°19' E 006°57'0 0.0
2016-Feb-04 20:33N 53°19' E 006°57'0 0.0
2016-Feb-04 19:32N 53°19' E 006°57'0 0.0
2016-Feb-04 18:32N 53°19' E 006°57'0 0.0
2016-Feb-04 17:31N 53°19' E 006°57'0 0.0
2016-Feb-04 16:31N 53°19' E 006°57'0 0.0
2016-Feb-04 15:34N 53°19' E 006°57'0 0.0
2016-Feb-04 14:33N 53°19' E 006°57'0 0.0
2016-Feb-04 13:33N 53°19' E 006°57'0 0.0
2016-Feb-04 12:32N 53°19' E 006°57'0 0.0
2016-Feb-04 11:33N 53°19' E 006°57'0 0.0
2016-Feb-04 10:31N 53°19' E 006°57'0 0.0
2016-Feb-04 09:31N 53°19' E 006°57'0 0.0
2016-Feb-04 08:34N 53°19' E 006°57'0 0.0
2016-Feb-04 07:33N 53°19' E 006°57'0 0.0
2016-Feb-04 06:33N 53°19' E 006°57'0 0.0
2016-Feb-04 05:32N 53°19' E 006°57'0 0.0
2016-Feb-04 04:29N 53°19' E 006°57'0 0.0
2016-Feb-04 03:31N 53°19' E 006°57'0 0.0
2016-Feb-04 02:31N 53°19' E 006°57'0 0.0
2016-Feb-04 01:30N 53°19' E 006°57'0 0.0
2016-Feb-04 00:33N 53°19' E 006°57'0 0.0
2016-Feb-03 23:33N 53°19' E 006°57'0 0.0
2016-Feb-03 22:32N 53°19' E 006°57'0 0.0
2016-Feb-03 21:32N 53°19' E 006°57'0 0.3
2016-Feb-03 20:33N 53°20' E 006°57'0 0.2
2016-Feb-03 19:32N 53°20' E 006°56'0 0.0
2016-Feb-03 18:32N 53°20' E 006°56'0 0.0
2016-Feb-03 17:31N 53°20' E 006°56'0 0.0
2016-Feb-03 16:31N 53°20' E 006°56'0 0.0
2016-Feb-03 15:30N 53°20' E 006°56'0 0.0
2016-Feb-03 14:30N 53°20' E 006°56'0 0.0
2016-Feb-03 13:33N 53°20' E 006°56'0 0.0
2016-Feb-03 12:32N 53°20' E 006°56'0 0.0
2016-Feb-03 11:32N 53°20' E 006°56'0 0.0
2016-Feb-03 10:31N 53°20' E 006°56'0 0.0
2016-Feb-03 09:25N 53°20' E 006°56'0 0.0
2016-Feb-03 08:33N 53°20' E 006°56'0 0.0
2016-Feb-03 07:33N 53°20' E 006°56'0 0.0
2016-Feb-03 06:33N 53°20' E 006°56'0 0.0
2016-Feb-03 05:32N 53°20' E 006°56'0 0.0
2016-Feb-03 04:32N 53°20' E 006°56'0 0.0
2016-Feb-03 03:31N 53°20' E 006°56'0 0.0
2016-Feb-03 02:31N 53°20' E 006°56'0 0.0
2016-Feb-03 01:33N 53°20' E 006°56'0 0.0
2016-Feb-03 00:33N 53°20' E 006°56'0 0.0
2016-Feb-02 23:32N 53°20' E 006°56'0 0.0
2016-Feb-02 22:32N 53°20' E 006°56'0 0.0
2016-Feb-02 21:32N 53°20' E 006°56'0 0.0
2016-Feb-02 20:31N 53°20' E 006°56'0 0.0
2016-Feb-02 19:31N 53°20' E 006°56'0 0.0
2016-Feb-02 18:34N 53°20' E 006°56'4 3.5
2016-Feb-02 17:34N 53°23' E 006°58'1212.1
2016-Feb-02 16:34N 53°32' E 006°44'1010.0
2016-Feb-02 15:34N 53°37' E 006°29'1312.8
2016-Feb-02 14:33N 53°37' E 006°08'1313.0
2016-Feb-02 13:33N 53°36' E 005°46'1313.4
2016-Feb-02 12:34N 53°33' E 005°24'1413.5
2016-Feb-02 11:32N 53°29' E 005°02'2512.5
2016-Feb-02 09:33N 53°11' E 004°32'1312.9
2016-Feb-02 08:33N 53°00' E 004°22'1412.7
2016-Feb-02 07:26N 52°48' E 004°10'9411.9
2016-Feb-01 23:33N 51°39' E 002°26'1212.2
2016-Feb-01 22:33N 51°30' E 002°13'1312.9
2016-Feb-01 21:33N 51°20' E 001°59'1313.6
2016-Feb-01 20:33N 51°10' E 001°45'1414.2
2016-Feb-01 19:33N 50°59' E 001°31'28412.3
2016-Jan-31 20:28N 48°57' W 005°08'1813.1
2016-Jan-31 19:07N 48°48' W 005°31'103 6.9
2016-Jan-31 04:09N 47°18' W 004°16'102 7.3
2016-Jan-30 14:08N 46°20' W 002°12'4 6.4
2016-Jan-30 13:33N 46°18' W 002°08'8 7.1
2016-Jan-30 12:23N 46°14' W 001°58'6 7.3
2016-Jan-30 11:34N 46°10' W 001°51'8 7.2
2016-Jan-30 10:30N 46°08' W 001°40'7 6.9
2016-Jan-30 09:30N 46°07' W 001°30'1010.7
2016-Jan-30 08:34N 46°05' W 001°16'1111.4
2016-Jan-30 07:34N 45°57' W 001°04'3 0.1
2016-Jan-28 17:24N 45°56' W 001°00'6 6.5
2016-Jan-28 16:33N 45°59' W 001°07'6 6.2
2016-Jan-28 15:33N 46°04' W 001°13'0 0.0
2016-Jan-28 14:33N 46°04' W 001°13'0 0.1
2016-Jan-28 13:33N 46°04' W 001°13'0 0.0
2016-Jan-28 12:34N 46°04' W 001°13'0 0.0
2016-Jan-28 11:34N 46°04' W 001°13'0 0.0
2016-Jan-28 10:33N 46°04' W 001°13'0 0.0
2016-Jan-28 09:33N 46°04' W 001°13'0 0.0
2016-Jan-28 08:33N 46°04' W 001°13'0 0.0
2016-Jan-28 07:33N 46°04' W 001°13'0 0.0
2016-Jan-28 06:33N 46°04' W 001°13'0 0.1
2016-Jan-28 05:33N 46°04' W 001°13'  

Dump ship's entire track history